Time;durP1;ratioP1;P1;durP2;ratioP2;P2;SDS_P1;SDS_P2;PMS_P1;PMS_P2;Temp;Humidity;BMP_temperature;BMP_pressure;BME280_temperature;BME280_humidity;BME280_pressure;Samples;Min_cycle;Max_cycle;Signal;HPM_P1;HPM_P2
2021/01/24 00:00:32;;;;;;;60.08;55.60;;;;;;;13.82;43.30;98166.81;4403050;32;33808;-83
2021/01/24 00:03:00;;;;;;;59.75;55.47;;;;;;;13.99;43.22;98168.25;4405127;32;33661;-82
2021/01/24 00:05:27;;;;;;;59.00;54.72;;;;;;;14.78;41.62;98159.22;4420308;32;34261;-84
2021/01/24 00:07:54;;;;;;;59.53;55.05;;;;;;;14.97;41.11;98153.44;4419534;32;33752;-83
2021/01/24 00:10:21;;;;;;;59.55;55.38;;;;;;;14.42;42.24;98132.09;4376496;32;34543;-84
2021/01/24 00:12:48;;;;;;;58.30;54.10;;;;;;;15.09;40.57;98131.56;4393566;32;33141;-86
2021/01/24 00:15:15;;;;;;;59.65;55.35;;;;;;;15.32;39.90;98136.84;4381019;32;33306;-86
2021/01/24 00:17:42;;;;;;;59.92;55.53;;;;;;;15.15;40.19;98132.88;4393223;32;34644;-84
2021/01/24 00:20:11;;;;;;;59.58;55.28;;;;;;;14.86;41.04;98130.66;4393435;32;33821;-84
2021/01/24 00:22:38;;;;;;;59.90;55.55;;;;;;;14.98;40.69;98123.66;4380926;32;33444;-85
2021/01/24 00:25:06;;;;;;;59.08;54.75;;;;;;;15.13;40.47;98127.75;4380841;32;33769;-85
2021/01/24 00:27:33;;;;;;;59.42;54.97;;;;;;;14.67;41.14;98125.94;4393502;32;33781;-84
2021/01/24 00:30:06;;;;;;;58.63;54.63;;;;;;;15.09;40.33;98125.47;4393419;32;33703;-85
2021/01/24 00:32:34;;;;;;;60.25;55.97;;;;;;;13.72;43.55;98137.00;4405289;32;34335;-83
2021/01/24 00:35:03;;;;;;;60.30;55.92;;;;;;;13.91;43.34;98140.97;4393133;32;33771;-84
2021/01/24 00:37:31;;;;;;;60.20;55.70;;;;;;;12.75;45.86;98148.69;4380696;32;33739;-85
2021/01/24 00:39:59;;;;;;;61.65;56.55;;;;;;;13.35;44.32;98139.50;4392640;32;34719;-84
2021/01/24 00:42:27;;;;;;;60.00;55.47;;;;;;;14.07;42.44;98148.56;4380663;32;34031;-85
2021/01/24 00:44:54;;;;;;;58.67;54.67;;;;;;;14.30;41.30;98146.91;4379801;32;36019;-85
2021/01/24 00:47:21;;;;;;;58.00;53.95;;;;;;;14.54;40.23;98146.91;4406634;32;34735;-84
2021/01/24 00:49:49;;;;;;;58.80;54.42;;;;;;;13.76;41.92;98148.94;4392394;32;35426;-84
2021/01/24 00:52:16;;;;;;;58.53;54.40;;;;;;;14.23;40.68;98140.47;4380383;32;33670;-85
2021/01/24 00:54:45;;;;;;;58.47;54.20;;;;;;;14.11;40.79;98150.03;4393078;32;33851;-85
2021/01/24 00:57:12;;;;;;;59.30;55.00;;;;;;;13.96;41.33;98152.78;4404922;32;33894;-84
2021/01/24 00:59:39;;;;;;;59.55;55.30;;;;;;;12.91;43.03;98141.53;4379898;32;34087;-86
2021/01/24 01:02:06;;;;;;;59.40;55.03;;;;;;;12.05;45.30;98147.88;4392230;32;34258;-85
2021/01/24 01:04:34;;;;;;;58.75;54.45;;;;;;;11.60;46.61;98150.56;4392481;32;33943;-84
2021/01/24 01:07:01;;;;;;;60.45;55.97;;;;;;;11.74;46.59;98143.69;4393910;32;33993;-84
2021/01/24 01:09:28;;;;;;;60.50;56.03;;;;;;;12.89;43.66;98156.47;4369436;32;34303;-84
2021/01/24 01:11:56;;;;;;;59.42;55.10;;;;;;;12.50;44.77;98145.91;4394018;32;33777;-84
2021/01/24 01:14:23;;;;;;;60.08;55.72;;;;;;;13.19;43.13;98147.53;4369232;32;34350;-83
2021/01/24 01:16:50;;;;;;;59.05;54.72;;;;;;;13.30;42.29;98139.81;4381737;32;35251;-83
2021/01/24 01:19:18;;;;;;;59.58;55.38;;;;;;;13.47;41.75;98143.09;4381689;32;32787;-84
2021/01/24 01:21:45;;;;;;;59.47;54.92;;;;;;;11.82;45.42;98141.44;4394208;32;33439;-85
2021/01/24 01:24:12;;;;;;;61.10;56.47;;;;;;;12.07;45.17;98146.00;4394332;32;33559;-85
2021/01/24 01:26:39;;;;;;;60.88;56.30;;;;;;;12.21;45.09;98134.72;4394320;32;34121;-85
2021/01/24 01:29:06;;;;;;;60.10;55.63;;;;;;;10.81;49.03;98130.88;4381866;32;33676;-85
2021/01/24 01:31:34;;;;;;;60.85;56.20;;;;;;;11.24;48.35;98135.38;4393845;32;33113;-84
2021/01/24 01:34:01;;;;;;;60.75;56.00;;;;;;;10.61;50.31;98134.63;4394323;32;33979;-85
2021/01/24 01:36:28;;;;;;;60.12;55.28;;;;;;;11.87;47.40;98126.34;4407993;32;33832;-85
2021/01/24 01:38:55;;;;;;;58.38;54.10;;;;;;;11.43;48.19;98127.28;4393745;32;35742;-84
2021/01/24 01:41:29;;;;;;;58.83;54.33;;;;;;;12.38;45.30;98120.59;4381948;32;33448;-84
2021/01/24 01:43:56;;;;;;;59.53;55.12;;;;;;;12.73;44.26;98109.59;4381864;32;34495;-85
2021/01/24 01:46:26;;;;;;;59.67;54.78;;;;;;;13.18;43.35;98110.09;4381435;32;34645;-85
2021/01/24 01:48:55;;;;;;;61.13;56.03;;;;;;;13.41;43.06;98112.94;4381691;32;33627;-83
2021/01/24 01:51:24;;;;;;;60.45;55.88;;;;;;;12.40;45.86;98112.63;4386719;32;33799;-83
2021/01/24 01:53:54;;;;;;;60.42;55.67;;;;;;;11.75;48.40;98114.06;4400280;32;33799;-83
2021/01/24 01:56:21;;;;;;;60.08;55.38;;;;;;;11.02;50.56;98121.00;4385360;32;34790;-85
2021/01/24 01:58:48;;;;;;;61.13;56.55;;;;;;;11.48;49.97;98120.84;4407652;32;33943;-84
2021/01/24 02:01:32;;;;;;;60.08;55.67;;;;;;;11.21;51.18;98118.16;4381666;32;34083;-84
2021/01/24 02:04:09;;;;;;;59.47;55.20;;;;;;;12.30;48.61;98108.00;4407552;32;34689;-84
2021/01/24 02:06:52;;;;;;;58.92;54.60;;;;;;;12.11;49.58;98105.75;4406462;32;33862;-85
2021/01/24 02:09:39;;;;;;;59.90;55.28;;;;;;;12.41;49.16;98114.31;4406429;32;34422;-84
2021/01/24 02:12:21;;;;;;;58.80;54.60;;;;;;;12.95;47.74;98108.16;4406612;32;33248;-84
2021/01/24 02:14:58;;;;;;;57.90;53.58;;;;;;;13.66;45.64;98113.88;4393917;32;35990;-85
2021/01/24 02:17:26;;;;;;;58.13;53.83;;;;;;;14.22;43.87;98123.88;4392928;32;33980;-85
2021/01/24 02:20:13;;;;;;;57.97;53.70;;;;;;;14.27;43.70;98121.78;4394259;32;33744;-83
2021/01/24 02:22:42;;;;;;;59.25;54.80;;;;;;;14.40;43.04;98116.50;4406189;32;33092;-85
2021/01/24 02:25:18;;;;;;;58.45;54.25;;;;;;;14.69;42.02;98122.25;4381176;32;33672;-87
2021/01/24 02:27:51;;;;;;;59.05;54.90;;;;;;;14.26;42.64;98130.56;4393810;32;34794;-85
2021/01/24 02:30:24;;;;;;;58.38;54.20;;;;;;;14.43;41.91;98129.38;4393893;32;34008;-84
2021/01/24 02:32:59;;;;;;;58.10;54.10;;;;;;;14.60;41.33;98128.16;4381237;32;35105;-84
2021/01/24 02:35:28;;;;;;;57.60;53.47;;;;;;;14.63;40.97;98119.22;4381511;32;35123;-85
2021/01/24 02:37:57;;;;;;;57.50;53.40;;;;;;;14.57;41.04;98124.91;4393968;32;33456;-86
2021/01/24 02:40:25;;;;;;;59.30;55.00;;;;;;;14.66;40.68;98130.31;4393749;32;33545;-85
2021/01/24 02:42:54;;;;;;;58.67;54.50;;;;;;;14.68;41.40;98127.63;4393746;32;34071;-84
2021/01/24 02:45:22;;;;;;;57.53;53.63;;;;;;;14.01;43.00;98129.72;4393944;32;33393;-85
2021/01/24 02:47:49;;;;;;;60.38;56.08;;;;;;;14.50;42.19;98129.75;4393640;32;33764;-85
2021/01/24 02:50:17;;;;;;;58.58;54.20;;;;;;;14.35;42.66;98122.06;4381026;32;35039;-83
2021/01/24 02:52:45;;;;;;;58.72;54.33;;;;;;;13.90;44.14;98136.66;4393649;32;33135;-84
2021/01/24 02:55:14;;;;;;;58.60;54.13;;;;;;;14.02;44.45;98136.59;4393759;32;33664;-85
2021/01/24 02:57:41;;;;;;;59.88;55.47;;;;;;;13.61;45.71;98131.66;4406089;32;35021;-86
2021/01/24 03:00:09;;;;;;;60.08;55.70;;;;;;;13.79;45.73;98124.31;4381473;32;34486;-85
2021/01/24 03:02:36;;;;;;;61.30;56.60;;;;;;;14.24;44.47;98129.00;4393400;32;33893;-84
2021/01/24 03:05:04;;;;;;;60.35;55.42;;;;;;;12.83;47.87;98139.44;4393522;32;34123;-85
2021/01/24 03:07:33;;;;;;;59.50;55.08;;;;;;;12.67;48.48;98128.28;4393799;32;33527;-84
2021/01/24 03:10:00;;;;;;;60.83;55.88;;;;;;;13.14;47.15;98126.09;4381770;32;33721;-84
2021/01/24 03:12:33;;;;;;;61.70;56.85;;;;;;;13.99;45.11;98128.97;4393903;32;34124;-85
2021/01/24 03:15:03;;;;;;;60.42;55.78;;;;;;;14.22;44.66;98134.37;4384816;32;35753;-85
2021/01/24 03:17:35;;;;;;;59.83;55.00;;;;;;;13.33;46.73;98138.75;4387341;32;34083;-84
2021/01/24 03:20:04;;;;;;;61.63;56.70;;;;;;;14.16;44.80;98137.41;4397327;32;33764;-84
2021/01/24 03:22:35;;;;;;;60.40;55.70;;;;;;;14.09;44.88;98130.94;4381403;32;33568;-85
2021/01/24 03:25:03;;;;;;;60.95;55.90;;;;;;;15.01;42.67;98118.16;4374755;32;204305;-85
2021/01/24 03:27:31;;;;;;;61.75;57.05;;;;;;;14.80;43.05;98115.38;4380892;32;34226;-85
2021/01/24 03:29:59;;;;;;;61.65;56.88;;;;;;;15.03;42.46;98105.78;4380496;32;34638;-84
2021/01/24 03:32:27;;;;;;;61.50;56.60;;;;;;;15.05;42.48;98098.66;4393409;32;34452;-85
2021/01/24 03:34:54;;;;;;;61.67;57.08;;;;;;;14.93;42.67;98096.94;4393213;32;33975;-85
2021/01/24 03:37:22;;;;;;;60.60;56.17;;;;;;;15.02;42.52;98099.72;4393027;32;34896;-84
2021/01/24 03:39:49;;;;;;;61.83;57.08;;;;;;;14.82;42.83;98106.47;4393328;32;34388;-86
2021/01/24 03:42:16;;;;;;;61.63;56.97;;;;;;;14.09;44.59;98113.44;4380526;32;34053;-85
2021/01/24 03:44:43;;;;;;;61.00;56.22;;;;;;;13.38;46.39;98120.19;4368591;32;33163;-85
2021/01/24 03:47:11;;;;;;;60.63;56.03;;;;;;;14.26;44.18;98112.25;4380541;32;33991;-85
2021/01/24 03:49:39;;;;;;;61.40;56.42;;;;;;;14.55;43.22;98111.09;4407363;32;33670;-86
2021/01/24 03:52:06;;;;;;;61.78;57.05;;;;;;;15.13;41.89;98106.78;4393024;32;33743;-84
2021/01/24 03:54:33;;;;;;;61.67;56.78;;;;;;;14.29;43.74;98112.03;4380765;32;34155;-84
2021/01/24 03:57:01;;;;;;;60.47;55.75;;;;;;;14.05;44.34;98119.03;4407216;32;33569;-84
2021/01/24 03:59:28;;;;;;;61.47;56.70;;;;;;;14.41;43.69;98110.28;4392860;32;34100;-86
2021/01/24 04:01:56;;;;;;;61.35;56.28;;;;;;;14.02;44.56;98107.81;4392901;32;35018;-83
2021/01/24 04:04:24;;;;;;;59.83;55.33;;;;;;;13.54;45.77;98115.56;4393197;32;34131;-86
2021/01/24 04:06:51;;;;;;;62.15;57.33;;;;;;;14.25;43.92;98113.19;4393291;32;33751;-83
2021/01/24 04:09:18;;;;;;;60.78;55.97;;;;;;;14.51;43.11;98110.47;4406805;32;33983;-85
2021/01/24 04:11:46;;;;;;;60.95;56.08;;;;;;;14.68;42.59;98117.13;4393752;32;34576;-84
2021/01/24 04:14:13;;;;;;;59.15;54.55;;;;;;;14.96;42.04;98115.91;4380511;32;34797;-85
2021/01/24 04:16:40;;;;;;;59.10;54.47;;;;;;;15.09;41.71;98107.97;4405935;32;34810;-85
2021/01/24 04:19:08;;;;;;;60.92;56.35;;;;;;;15.08;41.65;98119.41;4365857;32;35070;-83
2021/01/24 04:21:35;;;;;;;60.83;56.10;;;;;;;14.97;41.88;98119.34;4405369;32;34030;-84
2021/01/24 04:24:02;;;;;;;60.42;55.65;;;;;;;14.34;43.31;98120.38;4393285;32;34787;-85
2021/01/24 04:26:30;;;;;;;59.17;54.83;;;;;;;14.13;44.00;98121.94;4405610;32;33753;-85
2021/01/24 04:28:57;;;;;;;60.03;55.33;;;;;;;13.61;45.07;98122.03;4405467;32;34169;-85
2021/01/24 04:31:24;;;;;;;59.92;55.50;;;;;;;14.56;42.82;98118.84;4392861;32;34342;-84
2021/01/24 04:33:51;;;;;;;61.70;56.70;;;;;;;14.10;43.71;98116.91;4380643;32;35703;-85
2021/01/24 04:36:19;;;;;;;58.47;54.17;;;;;;;14.42;42.71;98111.13;4393182;32;34780;-86
2021/01/24 04:38:46;;;;;;;59.50;55.17;;;;;;;13.61;44.29;98116.78;4392142;32;33651;-84
2021/01/24 04:41:13;;;;;;;59.60;55.10;;;;;;;12.96;46.36;98123.78;4395770;32;33178;-84
2021/01/24 04:43:41;;;;;;;60.28;55.47;;;;;;;12.60;47.29;98125.22;4383910;32;33918;-85
2021/01/24 04:46:08;;;;;;;59.58;55.17;;;;;;;13.41;45.39;98112.94;4402356;32;33609;-84
2021/01/24 04:48:36;;;;;;;59.30;54.78;;;;;;;13.92;44.07;98112.06;4392880;32;34766;-85
2021/01/24 04:51:03;;;;;;;59.83;55.53;;;;;;;14.35;43.01;98108.13;4406602;32;33328;-84
2021/01/24 04:53:32;;;;;;;58.75;54.25;;;;;;;13.95;43.74;98117.06;4404889;32;33764;-86
2021/01/24 04:56:00;;;;;;;59.55;54.95;;;;;;;14.38;42.86;98120.16;4379871;32;34028;-85
2021/01/24 04:58:28;;;;;;;59.60;54.95;;;;;;;14.71;41.88;98123.94;4392415;32;35777;-85
2021/01/24 05:00:55;;;;;;;59.33;54.85;;;;;;;14.35;42.66;98124.69;4392601;32;34371;-84
2021/01/24 05:03:22;;;;;;;56.75;52.62;;;;;;;14.76;41.78;98127.88;4392552;32;33750;-84
2021/01/24 05:05:50;;;;;;;58.03;53.75;;;;;;;14.61;41.87;98127.19;4392564;32;34024;-86
2021/01/24 05:08:17;;;;;;;56.88;53.03;;;;;;;14.61;42.17;98127.19;4392318;32;33334;-84
2021/01/24 05:10:46;;;;;;;58.45;54.08;;;;;;;15.00;41.26;98121.75;4380214;32;33341;-84
2021/01/24 05:13:25;;;;;;;54.90;51.25;;;;;;;14.92;41.44;98124.94;4380229;32;34402;-84
2021/01/24 05:15:56;;;;;;;55.88;51.85;;;;;;;14.65;41.95;98133.91;4392352;32;34361;-86
2021/01/24 05:18:23;;;;;;;;;;;;;;;15.02;41.06;98141.69;4390740;32;34921;-85
2021/01/24 05:20:52;;;;;;;52.45;49.25;;;;;;;15.27;40.42;98149.47;4405068;32;33850;-85
2021/01/24 05:23:22;;;;;;;52.45;49.08;;;;;;;13.74;43.62;98145.56;4379943;32;33086;-85
2021/01/24 05:25:50;;;;;;;52.80;49.30;;;;;;;13.01;46.04;98145.19;4379644;32;34854;-85
2021/01/24 05:28:27;;;;;;;52.15;49.05;;;;;;;13.16;45.61;98152.97;4379886;32;33881;-85
2021/01/24 05:31:03;;;;;;;53.22;49.70;;;;;;;13.40;44.96;98149.66;4392128;32;33595;-84
2021/01/24 05:33:31;;;;;;;52.00;48.80;;;;;;;13.27;45.45;98154.84;4392600;32;33798;-85
2021/01/24 05:35:58;;;;;;;52.60;49.25;;;;;;;13.50;44.79;98159.41;4379942;32;33430;-86
2021/01/24 05:38:28;;;;;;;52.47;49.10;;;;;;;14.25;42.78;98162.13;4392164;32;33633;-85
2021/01/24 05:41:04;;;;;;;52.60;49.28;;;;;;;12.69;46.63;98156.00;4392548;32;34082;-85
2021/01/24 05:43:36;;;;;;;52.97;49.60;;;;;;;12.14;48.13;98157.75;4392285;32;33676;-85
2021/01/24 05:46:04;;;;;;;52.65;49.17;;;;;;;13.74;44.19;98155.22;4379517;32;33896;-84
2021/01/24 05:48:34;;;;;;;52.25;49.03;;;;;;;14.23;42.82;98159.62;4379446;32;34063;-85
2021/01/24 05:51:03;;;;;;;52.20;48.80;;;;;;;13.75;43.57;98169.97;4404333;32;34503;-84
2021/01/24 05:53:37;;;;;;;52.00;48.60;;;;;;;14.14;42.94;98176.00;4394055;32;32876;-85
2021/01/24 05:56:08;;;;;;;52.55;49.25;;;;;;;13.62;44.18;98189.13;4382050;32;34627;-86
2021/01/24 05:58:35;;;;;;;52.25;49.13;;;;;;;13.34;44.73;98185.72;4381880;32;34509;-84
2021/01/24 06:01:03;;;;;;;52.00;48.72;;;;;;;12.93;45.84;98180.66;4397714;32;33368;-83
2021/01/24 06:03:30;;;;;;;52.05;48.70;;;;;;;13.08;45.69;98186.63;4400562;32;33607;-85
2021/01/24 06:05:57;;;;;;;52.80;49.63;;;;;;;12.15;48.04;98184.69;4412875;32;33723;-86
2021/01/24 06:08:25;;;;;;;52.95;49.60;;;;;;;13.57;44.45;98190.38;4393909;32;34737;-85
2021/01/24 06:10:53;;;;;;;53.28;49.88;;;;;;;12.74;46.41;98188.81;4394092;32;33036;-85
2021/01/24 06:13:28;;;;;;;52.15;48.85;;;;;;;11.63;49.57;98186.06;4381266;32;35572;-84
2021/01/24 06:16:05;;;;;;;51.58;48.28;;;;;;;12.69;46.80;98191.75;4408033;32;34930;-85
2021/01/24 06:18:39;;;;;;;52.53;49.08;;;;;;;13.24;45.39;98189.06;4394293;32;34263;-84
2021/01/24 06:21:11;;;;;;;51.75;48.55;;;;;;;13.31;45.13;98187.72;4407688;32;33348;-84
2021/01/24 06:23:43;;;;;;;52.15;48.90;;;;;;;13.41;44.93;98198.44;4393955;32;34523;-84
2021/01/24 06:26:14;;;;;;;52.40;49.20;;;;;;;13.63;44.38;98201.28;4393838;32;33655;-85
2021/01/24 06:28:47;;;;;;;52.28;49.08;;;;;;;13.76;43.85;98213.50;4381653;32;34079;-85
2021/01/24 06:31:16;;;;;;;51.47;48.15;;;;;;;13.70;44.10;98206.94;4405977;32;34824;-84
2021/01/24 06:33:51;;;;;;;52.80;49.60;;;;;;;12.84;46.08;98206.44;4381474;32;33559;-85
2021/01/24 06:36:19;;;;;;;52.40;49.00;;;;;;;13.82;43.86;98210.50;4406290;32;34599;-85
2021/01/24 06:38:54;;;;;;;53.05;49.67;;;;;;;13.27;45.01;98212.38;4381092;32;34123;-84
2021/01/24 06:41:44;;;;;;;52.45;49.25;;;;;;;12.98;46.48;98210.75;4381319;32;33662;-85
2021/01/24 06:44:40;;;;;;;51.78;48.70;;;;;;;13.30;45.58;98218.25;4406459;32;32458;-85
2021/01/24 06:47:35;;;;;;;51.97;48.78;;;;;;;14.17;43.52;98218.53;4393735;32;34013;-84
2021/01/24 06:50:04;;;;;;;52.95;49.55;;;;;;;14.44;42.91;98227.13;4381385;32;34005;-85
2021/01/24 06:52:38;;;;;;;51.65;48.35;;;;;;;15.00;41.55;98222.25;4382077;32;34968;-86
2021/01/24 06:55:25;;;;;;;53.28;49.80;;;;;;;15.12;41.18;98231.00;4393729;32;33983;-85
2021/01/24 06:57:52;;;;;;;53.53;50.08;;;;;;;14.98;41.67;98237.28;4394168;32;33930;-84
2021/01/24 07:00:23;;;;;;;51.53;48.42;;;;;;;15.04;41.29;98249.09;4407965;32;33672;-84
2021/01/24 07:02:50;;;;;;;53.08;49.58;;;;;;;15.02;41.32;98249.22;4406769;32;33305;-85
2021/01/24 07:05:22;;;;;;;52.67;49.35;;;;;;;14.91;41.62;98249.13;4392747;32;34611;-85
2021/01/24 07:07:50;;;;;;;52.62;49.22;;;;;;;15.09;41.11;98249.59;4381285;32;34382;-84
2021/01/24 07:10:36;;;;;;;52.22;49.03;;;;;;;15.35;40.59;98249.44;4407492;32;33924;-84
2021/01/24 07:13:29;;;;;;;52.40;49.33;;;;;;;15.11;41.23;98250.31;4393957;32;33416;-85
2021/01/24 07:15:57;;;;;;;52.72;49.40;;;;;;;15.72;39.80;98241.44;4393874;32;34316;-86
2021/01/24 07:18:24;;;;;;;52.90;49.53;;;;;;;15.80;39.64;98240.84;4412292;32;35043;-85
2021/01/24 07:20:54;;;;;;;52.30;49.25;;;;;;;15.43;40.46;98251.50;4385900;32;34624;-84
2021/01/24 07:23:22;;;;;;;53.13;49.72;;;;;;;15.61;40.11;98252.75;4385836;32;34300;-85
2021/01/24 07:25:49;;;;;;;53.15;49.85;;;;;;;13.66;44.54;98249.94;4395781;32;33933;-86
2021/01/24 07:28:16;;;;;;;53.47;49.70;;;;;;;14.77;41.97;98255.41;4406244;32;34478;-85
2021/01/24 07:30:46;;;;;;;52.95;49.75;;;;;;;13.95;43.88;98268.09;4381565;32;33864;-85
2021/01/24 07:33:14;;;;;;;52.78;49.45;;;;;;;14.49;42.72;98266.97;4381047;32;34077;-84
2021/01/24 07:35:42;;;;;;;53.15;49.58;;;;;;;14.36;42.89;98273.06;4405959;32;34454;-85
2021/01/24 07:38:09;;;;;;;53.15;49.85;;;;;;;14.77;42.11;98278.13;4393478;32;35140;-85
2021/01/24 07:40:37;;;;;;;53.55;50.05;;;;;;;15.27;41.01;98273.63;4393697;32;34523;-86
2021/01/24 07:43:05;;;;;;;53.90;50.30;;;;;;;15.13;41.29;98276.41;4380645;32;33615;-85
2021/01/24 07:45:32;;;;;;;54.10;50.33;;;;;;;15.26;41.03;98279.81;4381001;32;35324;-86
2021/01/24 07:48:00;;;;;;;54.00;50.40;;;;;;;14.81;42.01;98284.84;4393583;32;33875;-85
2021/01/24 07:50:27;;;;;;;53.78;50.38;;;;;;;14.97;41.79;98288.03;4407357;32;33393;-86
2021/01/24 07:52:55;;;;;;;54.40;50.85;;;;;;;14.92;41.65;98286.69;4393169;32;34452;-85
2021/01/24 07:55:22;;;;;;;53.92;50.50;;;;;;;14.73;42.32;98298.50;4393037;32;34068;-85
2021/01/24 07:57:49;;;;;;;53.58;50.12;;;;;;;15.12;41.18;98309.69;4393379;32;34759;-84
2021/01/24 08:00:17;;;;;;;54.05;50.45;;;;;;;13.96;44.09;98315.09;4393765;32;34620;-85
2021/01/24 08:02:45;;;;;;;55.53;51.92;;;;;;;14.54;42.83;98309.41;4380793;32;33979;-85
2021/01/24 08:05:12;;;;;;;55.03;51.17;;;;;;;14.81;42.26;98311.91;4393386;32;34602;-86
2021/01/24 08:07:42;;;;;;;56.50;52.53;;;;;;;14.93;42.01;98322.44;4393751;32;33637;-85
2021/01/24 08:10:09;;;;;;;55.28;51.47;;;;;;;14.99;42.12;98327.25;4393216;32;34510;-85
2021/01/24 08:12:36;;;;;;;56.05;52.35;;;;;;;14.63;42.74;98321.03;4393500;32;33428;-86
2021/01/24 08:15:06;;;;;;;55.38;51.58;;;;;;;15.00;41.97;98331.56;4380075;32;34703;-85
2021/01/24 08:17:34;;;;;;;56.25;52.45;;;;;;;15.14;41.67;98334.03;4380700;32;35651;-86
2021/01/24 08:20:03;;;;;;;56.00;52.05;;;;;;;15.14;41.54;98338.44;4380343;32;33196;-84
2021/01/24 08:22:30;;;;;;;56.47;52.67;;;;;;;14.92;41.91;98344.38;4380612;32;34901;-86
2021/01/24 08:24:58;;;;;;;56.20;52.47;;;;;;;13.14;45.52;98346.56;4380797;32;33873;-84
2021/01/24 08:27:27;;;;;;;56.20;52.28;;;;;;;13.67;44.68;98351.91;4380946;32;33886;-86
2021/01/24 08:29:54;;;;;;;55.97;52.08;;;;;;;13.76;44.51;98354.84;4393182;32;35399;-85
2021/01/24 08:32:22;;;;;;;56.65;52.58;;;;;;;13.26;45.08;98358.03;4406678;32;33313;-84
2021/01/24 08:34:50;;;;;;;56.63;52.65;;;;;;;13.44;44.98;98369.13;4382429;32;34490;-83
2021/01/24 08:37:17;;;;;;;56.22;51.88;;;;;;;14.27;42.97;98375.06;4412983;32;34346;-83
2021/01/24 08:39:44;;;;;;;57.08;52.97;;;;;;;14.48;42.57;98380.59;4412008;32;34109;-84
2021/01/24 08:42:11;;;;;;;56.78;52.75;;;;;;;12.79;45.88;98390.59;4392958;32;34600;-84
2021/01/24 08:44:58;;;;;;;56.58;52.40;;;;;;;13.65;43.47;98386.97;4380169;32;34001;-84
2021/01/24 08:47:25;;;;;;;56.45;52.47;;;;;;;12.31;46.29;98391.72;4380360;32;34286;-85
2021/01/24 08:50:05;;;;;;;56.30;52.28;;;;;;;12.40;46.28;98392.94;4380733;32;34061;-85
2021/01/24 08:52:34;;;;;;;56.70;52.42;;;;;;;12.29;46.37;98398.81;4380591;32;32739;-84
2021/01/24 08:55:03;;;;;;;55.10;51.40;;;;;;;13.00;44.36;98389.28;4380462;32;35556;-85
2021/01/24 08:57:33;;;;;;;54.78;51.13;;;;;;;13.48;42.97;98390.69;4380273;32;33919;-85
2021/01/24 09:00:11;;;;;;;53.97;50.47;;;;;;;13.73;42.13;98400.41;4392423;32;34195;-84
2021/01/24 09:02:40;;;;;;;53.17;49.67;;;;;;;12.82;43.34;98403.50;4367828;32;33999;-85
2021/01/24 09:05:10;;;;;;;53.72;50.15;;;;;;;13.98;41.23;98407.47;4392530;32;32964;-86
2021/01/24 09:07:41;;;;;;;52.92;49.53;;;;;;;13.92;41.38;98418.38;4392295;32;35805;-85
2021/01/24 09:10:15;;;;;;;52.00;48.78;;;;;;;14.17;40.63;98417.59;4379795;32;34381;-84
2021/01/24 09:12:46;;;;;;;52.88;49.60;;;;;;;13.92;40.54;98405.28;4404964;32;34400;-85
2021/01/24 09:15:15;;;;;;;53.28;49.92;;;;;;;13.85;40.37;98412.69;4392525;32;33876;-85
2021/01/24 09:17:42;;;;;;;53.63;50.22;;;;;;;13.50;41.10;98399.28;4380516;32;33889;-85
2021/01/24 09:20:10;;;;;;;54.00;50.53;;;;;;;13.71;40.59;98404.91;4367621;32;35945;-86
2021/01/24 09:22:37;;;;;;;53.45;50.05;;;;;;;14.23;39.58;98405.84;4379755;32;33709;-84
2021/01/24 09:25:05;;;;;;;53.65;50.22;;;;;;;13.59;40.36;98410.91;4379935;32;34014;-85
2021/01/24 09:27:34;;;;;;;54.10;50.60;;;;;;;13.96;39.62;98403.28;4393418;32;33787;-86
2021/01/24 09:30:03;;;;;;;55.08;51.40;;;;;;;13.91;39.85;98403.59;4382192;32;34632;-86
2021/01/24 09:32:30;;;;;;;52.78;49.53;;;;;;;14.25;39.11;98409.19;4369366;32;34448;-86
2021/01/24 09:34:57;;;;;;;54.17;50.72;;;;;;;13.70;40.96;98411.91;4394330;32;33315;-86
2021/01/24 09:37:25;;;;;;;53.80;50.10;;;;;;;14.11;40.63;98427.62;4394451;32;33895;-85
2021/01/24 09:39:54;;;;;;;55.00;51.42;;;;;;;14.79;38.41;98420.47;4407925;32;33784;-86
2021/01/24 09:42:21;;;;;;;54.08;50.67;;;;;;;14.08;40.07;98410.34;4407250;32;33076;-86
2021/01/24 09:44:49;;;;;;;53.78;50.35;;;;;;;14.16;40.21;98413.28;4395812;32;34407;-84
2021/01/24 09:47:17;;;;;;;54.20;50.70;;;;;;;14.01;39.43;98415.16;4400333;32;33656;-84
2021/01/24 09:49:44;;;;;;;54.80;51.40;;;;;;;13.99;40.59;98411.78;4386658;32;33448;-85
2021/01/24 09:52:11;;;;;;;53.42;49.97;;;;;;;15.18;37.80;98414.19;4381575;32;34093;-85
2021/01/24 09:54:39;;;;;;;54.15;50.70;;;;;;;15.21;37.29;98410.50;4382201;32;33507;-87
2021/01/24 09:57:06;;;;;;;53.47;50.08;;;;;;;14.97;37.59;98407.81;4394224;32;34747;-85
2021/01/24 09:59:33;;;;;;;53.40;50.00;;;;;;;14.78;37.39;98410.91;4407714;32;33675;-86
2021/01/24 10:02:00;;;;;;;54.03;50.63;;;;;;;14.65;38.41;98416.16;4381597;32;34383;-86
2021/01/24 10:04:28;;;;;;;53.83;50.35;;;;;;;15.23;37.23;98426.97;4394093;32;34267;-86
2021/01/24 10:06:55;;;;;;;54.53;50.92;;;;;;;15.20;36.31;98429.81;4381378;32;34429;-87
2021/01/24 10:09:22;;;;;;;53.67;50.38;;;;;;;14.48;38.46;98430.41;4394405;32;33867;-86
2021/01/24 10:11:49;;;;;;;54.70;51.10;;;;;;;15.09;36.97;98430.59;4369439;32;34029;-85
2021/01/24 10:14:18;;;;;;;53.38;49.97;;;;;;;14.75;37.87;98432.09;4381691;32;34271;-87
2021/01/24 10:16:45;;;;;;;54.90;51.42;;;;;;;15.86;35.62;98439.97;4406496;32;33803;-86
2021/01/24 10:19:13;;;;;;;53.78;50.42;;;;;;;15.34;35.62;98445.44;4406582;32;34060;-85
2021/01/24 10:21:40;;;;;;;53.33;49.97;;;;;;;15.23;35.72;98455.84;4400659;32;33044;-87
2021/01/24 10:24:08;;;;;;;55.20;51.37;;;;;;;15.18;36.29;98450.94;4406309;32;34530;-86
2021/01/24 10:26:35;;;;;;;52.97;49.72;;;;;;;15.84;34.70;98445.34;4407264;32;34871;-87
2021/01/24 10:29:03;;;;;;;53.00;49.72;;;;;;;14.92;36.43;98444.00;4406353;32;34391;-86
2021/01/24 10:31:30;;;;;;;53.03;49.72;;;;;;;15.30;35.34;98443.97;4406637;32;34176;-87
2021/01/24 10:34:01;;;;;;;52.72;49.42;;;;;;;16.03;35.18;98430.84;4406483;32;34624;-86
2021/01/24 10:36:28;;;;;;;53.50;50.22;;;;;;;16.26;34.37;98428.31;4406371;32;34173;-86
2021/01/24 10:38:55;;;;;;;52.58;49.47;;;;;;;16.19;34.25;98425.28;4392892;32;33709;-87
2021/01/24 10:41:22;;;;;;;51.67;48.67;;;;;;;15.63;34.60;98424.09;4393970;32;34281;-87
2021/01/24 10:43:49;;;;;;;52.03;48.85;;;;;;;15.50;34.47;98418.91;4381387;32;33631;-87
2021/01/24 10:46:33;;;;;;;52.28;49.08;;;;;;;15.32;35.18;98418.44;4395686;32;34757;-86
2021/01/24 10:49:02;;;;;;;51.83;48.83;;;;;;;16.19;33.66;98426.16;4393713;32;33848;-86
2021/01/24 10:51:29;;;;;;;51.97;48.87;;;;;;;16.40;33.01;98419.38;4381067;32;33687;-88
2021/01/24 10:53:57;;;;;;;52.75;49.65;;;;;;;16.93;32.36;98430.22;4391393;32;34311;-86
2021/01/24 10:56:24;;;;;;;52.40;49.20;;;;;;;16.75;32.75;98434.25;4392473;32;33569;-85
2021/01/24 10:58:52;;;;;;;51.78;48.78;;;;;;;17.05;32.28;98438.13;4393685;32;34647;-86
2021/01/24 11:01:22;;;;;;;51.45;48.45;;;;;;;17.12;32.25;98431.41;4396157;32;34340;-85
2021/01/24 11:03:49;;;;;;;51.65;48.67;;;;;;;17.71;31.31;98430.22;4388065;32;33655;-85
2021/01/24 11:06:16;;;;;;;51.28;48.38;;;;;;;17.71;31.11;98430.22;4396997;32;34246;-86
2021/01/24 11:08:44;;;;;;;50.78;47.88;;;;;;;18.19;29.99;98428.94;4381063;32;33931;-85
2021/01/24 11:11:11;;;;;;;50.97;48.13;;;;;;;17.47;30.67;98431.22;4393635;32;33331;-87
2021/01/24 11:13:38;;;;;;;51.15;48.25;;;;;;;17.21;31.31;98433.31;4407102;32;33899;-88
2021/01/24 11:16:05;;;;;;;50.72;47.83;;;;;;;17.05;31.88;98438.94;4393428;32;33631;-87
2021/01/24 11:18:33;;;;;;;50.60;47.80;;;;;;;17.84;30.05;98444.03;4393603;32;33478;-87
2021/01/24 11:21:03;;;;;;;50.97;47.97;;;;;;;18.05;29.92;98445.06;4393198;32;35070;-88
2021/01/24 11:23:31;;;;;;;50.10;47.33;;;;;;;17.15;31.11;98439.91;4393290;32;34631;-85
2021/01/24 11:25:58;;;;;;;50.53;47.72;;;;;;;18.45;29.38;98442.56;4393377;32;33763;-87